sensor_id;sensor_type;location;lat;lon;timestamp;pressure;altitude;pressure_sealevel;temperature;humidity
54882;BME280;40775;51.448;4.742;2024-03-17T00:01:03;102239.78;;;8.28;100.00
54882;BME280;40775;51.448;4.742;2024-03-17T00:03:30;102239.63;;;8.25;100.00
54882;BME280;40775;51.448;4.742;2024-03-17T00:06:00;102246.81;;;8.29;100.00
54882;BME280;40775;51.448;4.742;2024-03-17T00:08:27;102239.03;;;8.30;100.00
54882;BME280;40775;51.448;4.742;2024-03-17T00:10:54;102244.19;;;8.29;100.00
54882;BME280;40775;51.448;4.742;2024-03-17T00:13:21;102243.28;;;8.28;100.00
54882;BME280;40775;51.448;4.742;2024-03-17T00:15:50;102236.50;;;8.32;100.00
54882;BME280;40775;51.448;4.742;2024-03-17T00:18:18;102241.66;;;8.30;100.00
54882;BME280;40775;51.448;4.742;2024-03-17T00:20:45;102239.28;;;8.35;100.00
54882;BME280;40775;51.448;4.742;2024-03-17T00:23:11;102233.97;;;8.33;100.00
54882;BME280;40775;51.448;4.742;2024-03-17T00:25:38;102240.00;;;8.32;100.00
54882;BME280;40775;51.448;4.742;2024-03-17T00:28:04;102244.53;;;8.35;100.00
54882;BME280;40775;51.448;4.742;2024-03-17T00:30:31;102233.97;;;8.33;100.00
54882;BME280;40775;51.448;4.742;2024-03-17T00:32:59;102229.06;;;8.40;100.00
54882;BME280;40775;51.448;4.742;2024-03-17T00:35:25;102230.19;;;8.45;100.00
54882;BME280;40775;51.448;4.742;2024-03-17T00:37:51;102221.38;;;8.43;100.00
54882;BME280;40775;51.448;4.742;2024-03-17T00:40:18;102220.22;;;8.38;100.00
54882;BME280;40775;51.448;4.742;2024-03-17T00:42:44;102222.34;;;8.45;100.00
54882;BME280;40775;51.448;4.742;2024-03-17T00:45:11;102217.84;;;8.42;100.00
54882;BME280;40775;51.448;4.742;2024-03-17T00:47:38;102210.75;;;8.40;100.00
54882;BME280;40775;51.448;4.742;2024-03-17T00:50:05;102215.56;;;8.32;100.00
54882;BME280;40775;51.448;4.742;2024-03-17T00:52:35;102226.13;;;8.33;100.00
54882;BME280;40775;51.448;4.742;2024-03-17T00:55:01;102219.50;;;8.40;100.00
54882;BME280;40775;51.448;4.742;2024-03-17T00:57:28;102213.22;;;8.36;100.00
54882;BME280;40775;51.448;4.742;2024-03-17T00:59:54;102211.41;;;8.35;100.00
54882;BME280;40775;51.448;4.742;2024-03-17T01:02:21;102207.63;;;8.30;100.00
54882;BME280;40775;51.448;4.742;2024-03-17T01:04:47;102204.03;;;8.28;100.00
54882;BME280;40775;51.448;4.742;2024-03-17T01:07:13;102197.00;;;8.27;100.00
54882;BME280;40775;51.448;4.742;2024-03-17T01:09:39;102191.03;;;8.30;100.00
54882;BME280;40775;51.448;4.742;2024-03-17T01:12:06;102193.81;;;8.33;100.00
54882;BME280;40775;51.448;4.742;2024-03-17T01:14:32;102191.31;;;8.34;100.00
54882;BME280;40775;51.448;4.742;2024-03-17T01:17:01;102189.50;;;8.33;100.00
54882;BME280;40775;51.448;4.742;2024-03-17T01:19:31;102190.47;;;8.35;100.00
54882;BME280;40775;51.448;4.742;2024-03-17T01:22:00;102188.50;;;8.31;100.00
54882;BME280;40775;51.448;4.742;2024-03-17T01:24:26;102184.97;;;8.31;100.00
54882;BME280;40775;51.448;4.742;2024-03-17T01:27:00;102183.25;;;8.31;100.00
54882;BME280;40775;51.448;4.742;2024-03-17T01:29:27;102181.47;;;8.30;100.00
54882;BME280;40775;51.448;4.742;2024-03-17T01:31:53;102178.03;;;8.31;100.00
54882;BME280;40775;51.448;4.742;2024-03-17T01:34:20;102179.66;;;8.29;100.00
54882;BME280;40775;51.448;4.742;2024-03-17T01:36:46;102175.59;;;8.34;100.00
54882;BME280;40775;51.448;4.742;2024-03-17T01:39:12;102178.03;;;8.31;100.00
54882;BME280;40775;51.448;4.742;2024-03-17T01:41:39;102175.69;;;8.36;100.00
54882;BME280;40775;51.448;4.742;2024-03-17T01:44:05;102174.03;;;8.38;100.00
54882;BME280;40775;51.448;4.742;2024-03-17T01:46:33;102176.41;;;8.33;100.00
54882;BME280;40775;51.448;4.742;2024-03-17T01:48:59;102173.13;;;8.38;100.00
54882;BME280;40775;51.448;4.742;2024-03-17T01:51:25;102171.25;;;8.35;100.00
54882;BME280;40775;51.448;4.742;2024-03-17T01:53:52;102173.13;;;8.38;100.00
54882;BME280;40775;51.448;4.742;2024-03-17T01:56:19;102171.34;;;8.36;100.00
54882;BME280;40775;51.448;4.742;2024-03-17T01:58:45;102164.38;;;8.37;100.00
54882;BME280;40775;51.448;4.742;2024-03-17T02:01:12;102159.31;;;8.40;100.00
54882;BME280;40775;51.448;4.742;2024-03-17T02:03:42;102161.03;;;8.40;100.00
54882;BME280;40775;51.448;4.742;2024-03-17T02:06:08;102145.09;;;8.35;100.00
54882;BME280;40775;51.448;4.742;2024-03-17T02:08:52;102153.84;;;8.35;100.00
54882;BME280;40775;51.448;4.742;2024-03-17T02:11:29;102145.03;;;8.33;100.00
54882;BME280;40775;51.448;4.742;2024-03-17T02:13:56;102140.09;;;8.40;100.00
54882;BME280;40775;51.448;4.742;2024-03-17T02:16:23;102133.22;;;8.42;100.00
54882;BME280;40775;51.448;4.742;2024-03-17T02:18:57;102133.88;;;8.38;100.00
54882;BME280;40775;51.448;4.742;2024-03-17T02:21:25;102131.28;;;8.38;100.00
54882;BME280;40775;51.448;4.742;2024-03-17T02:23:54;102139.94;;;8.36;100.00
54882;BME280;40775;51.448;4.742;2024-03-17T02:26:22;102125.34;;;8.42;100.00
54882;BME280;40775;51.448;4.742;2024-03-17T02:28:48;102129.41;;;8.35;100.00
54882;BME280;40775;51.448;4.742;2024-03-17T02:31:16;102120.13;;;8.42;100.00
54882;BME280;40775;51.448;4.742;2024-03-17T02:33:44;102115.72;;;8.41;100.00
54882;BME280;40775;51.448;4.742;2024-03-17T02:36:11;102118.41;;;8.42;100.00
54882;BME280;40775;51.448;4.742;2024-03-17T02:38:41;102120.81;;;8.38;100.00
54882;BME280;40775;51.448;4.742;2024-03-17T02:41:26;102122.53;;;8.37;100.00
54882;BME280;40775;51.448;4.742;2024-03-17T02:43:54;102120.81;;;8.38;100.00
54882;BME280;40775;51.448;4.742;2024-03-17T02:46:21;102121.69;;;8.38;100.00
54882;BME280;40775;51.448;4.742;2024-03-17T02:48:51;102117.22;;;8.35;100.00
54882;BME280;40775;51.448;4.742;2024-03-17T02:51:21;102116.63;;;8.41;100.00
54882;BME280;40775;51.448;4.742;2024-03-17T02:53:48;102108.53;;;8.36;100.00
54882;BME280;40775;51.448;4.742;2024-03-17T02:56:16;102106.34;;;8.28;100.00
54882;BME280;40775;51.448;4.742;2024-03-17T02:58:47;102099.88;;;8.38;100.00
54882;BME280;40775;51.448;4.742;2024-03-17T03:01:14;102111.97;;;8.35;100.00
54882;BME280;40775;51.448;4.742;2024-03-17T03:03:43;102102.91;;;8.29;100.00
54882;BME280;40775;51.448;4.742;2024-03-17T03:06:09;102100.28;;;8.29;100.00
54882;BME280;40775;51.448;4.742;2024-03-17T03:08:38;102100.69;;;8.20;100.00
54882;BME280;40775;51.448;4.742;2024-03-17T03:11:08;102096.28;;;8.19;100.00
54882;BME280;40775;51.448;4.742;2024-03-17T03:13:41;102090.34;;;8.22;100.00
54882;BME280;40775;51.448;4.742;2024-03-17T03:16:11;102089.69;;;8.26;100.00
54882;BME280;40775;51.448;4.742;2024-03-17T03:18:38;102094.13;;;8.11;100.00
54882;BME280;40775;51.448;4.742;2024-03-17T03:21:05;102088.97;;;8.12;100.00
54882;BME280;40775;51.448;4.742;2024-03-17T03:23:32;102084.41;;;8.08;100.00
54882;BME280;40775;51.448;4.742;2024-03-17T03:25:59;102080.00;;;8.07;100.00
54882;BME280;40775;51.448;4.742;2024-03-17T03:28:26;102074.69;;;8.05;100.00
54882;BME280;40775;51.448;4.742;2024-03-17T03:30:52;102067.53;;;8.01;100.00
54882;BME280;40775;51.448;4.742;2024-03-17T03:33:20;102064.69;;;7.97;100.00
54882;BME280;40775;51.448;4.742;2024-03-17T03:35:46;102069.09;;;7.98;100.00
54882;BME280;40775;51.448;4.742;2024-03-17T03:38:13;102064.69;;;7.97;100.00
54882;BME280;40775;51.448;4.742;2024-03-17T03:40:43;102056.84;;;7.97;100.00
54882;BME280;40775;51.448;4.742;2024-03-17T03:43:10;102058.47;;;7.95;100.00
54882;BME280;40775;51.448;4.742;2024-03-17T03:45:37;102055.53;;;7.89;100.00
54882;BME280;40775;51.448;4.742;2024-03-17T03:48:04;102051.94;;;7.87;100.00
54882;BME280;40775;51.448;4.742;2024-03-17T03:50:31;102058.50;;;7.79;100.00
54882;BME280;40775;51.448;4.742;2024-03-17T03:52:57;102060.97;;;7.75;100.00
54882;BME280;40775;51.448;4.742;2024-03-17T03:55:23;102058.44;;;7.77;100.00
54882;BME280;40775;51.448;4.742;2024-03-17T03:57:50;102061.94;;;7.78;100.00
54882;BME280;40775;51.448;4.742;2024-03-17T04:00:19;102058.50;;;7.79;100.00
54882;BME280;40775;51.448;4.742;2024-03-17T04:02:51;102054.03;;;7.76;100.00
54882;BME280;40775;51.448;4.742;2024-03-17T04:05:19;102057.19;;;7.87;100.00
54882;BME280;40775;51.448;4.742;2024-03-17T04:07:47;102051.03;;;7.86;100.00
54882;BME280;40775;51.448;4.742;2024-03-17T04:10:15;102054.88;;;7.93;100.00
54882;BME280;40775;51.448;4.742;2024-03-17T04:12:42;102048.81;;;7.94;100.00
54882;BME280;40775;51.448;4.742;2024-03-17T04:15:09;102046.38;;;7.97;100.00
54882;BME280;40775;51.448;4.742;2024-03-17T04:17:36;102042.13;;;7.99;100.00
54882;BME280;40775;51.448;4.742;2024-03-17T04:20:04;102036.16;;;8.01;100.00
54882;BME280;40775;51.448;4.742;2024-03-17T04:22:35;102044.66;;;7.97;100.00
54882;BME280;40775;51.448;4.742;2024-03-17T04:25:01;102041.38;;;8.01;100.00
54882;BME280;40775;51.448;4.742;2024-03-17T04:27:27;102051.38;;;8.10;100.00
54882;BME280;40775;51.448;4.742;2024-03-17T04:29:56;102040.03;;;8.10;100.00
54882;BME280;40775;51.448;4.742;2024-03-17T04:32:23;102042.41;;;8.05;100.00
54882;BME280;40775;51.448;4.742;2024-03-17T04:34:49;102045.19;;;8.08;100.00
54882;BME280;40775;51.448;4.742;2024-03-17T04:37:16;102042.56;;;8.08;100.00
54882;BME280;40775;51.448;4.742;2024-03-17T04:39:44;102030.59;;;8.13;100.00
54882;BME280;40775;51.448;4.742;2024-03-17T04:42:14;102021.03;;;8.14;100.00
54882;BME280;40775;51.448;4.742;2024-03-17T04:44:44;102023.50;;;8.11;100.00
54882;BME280;40775;51.448;4.742;2024-03-17T04:47:10;102025.31;;;8.12;100.00
54882;BME280;40775;51.448;4.742;2024-03-17T04:49:41;102016.63;;;8.13;100.00
54882;BME280;40775;51.448;4.742;2024-03-17T04:52:07;102013.13;;;8.12;100.00
54882;BME280;40775;51.448;4.742;2024-03-17T04:54:34;102015.50;;;8.07;100.00
54882;BME280;40775;51.448;4.742;2024-03-17T04:57:00;102013.94;;;8.11;100.00
54882;BME280;40775;51.448;4.742;2024-03-17T04:59:27;102015.66;;;8.11;100.00
54882;BME280;40775;51.448;4.742;2024-03-17T05:01:53;102011.63;;;8.17;100.00
54882;BME280;40775;51.448;4.742;2024-03-17T05:04:20;102023.72;;;8.15;100.00
54882;BME280;40775;51.448;4.742;2024-03-17T05:06:48;102030.53;;;8.12;100.00
54882;BME280;40775;51.448;4.742;2024-03-17T05:09:18;102031.44;;;8.12;100.00
54882;BME280;40775;51.448;4.742;2024-03-17T05:11:45;102026.19;;;8.12;100.00
54882;BME280;40775;51.448;4.742;2024-03-17T05:14:11;102020.28;;;8.16;100.00
54882;BME280;40775;51.448;4.742;2024-03-17T05:16:37;102014.91;;;8.13;100.00
54882;BME280;40775;51.448;4.742;2024-03-17T05:19:03;102012.44;;;8.16;100.00
54882;BME280;40775;51.448;4.742;2024-03-17T05:21:30;102012.44;;;8.16;100.00
54882;BME280;40775;51.448;4.742;2024-03-17T05:24:02;102010.66;;;8.15;100.00
54882;BME280;40775;51.448;4.742;2024-03-17T05:26:28;102011.69;;;8.19;100.00
54882;BME280;40775;51.448;4.742;2024-03-17T05:28:55;102009.25;;;8.22;100.00
54882;BME280;40775;51.448;4.742;2024-03-17T05:31:21;102016.16;;;8.21;100.00
54882;BME280;40775;51.448;4.742;2024-03-17T05:33:48;102003.91;;;8.20;100.00
54882;BME280;40775;51.448;4.742;2024-03-17T05:36:14;102002.94;;;8.18;100.00
54882;BME280;40775;51.448;4.742;2024-03-17T05:38:41;102006.03;;;8.27;100.00
54882;BME280;40775;51.448;4.742;2024-03-17T05:41:09;102010.22;;;8.24;100.00
54882;BME280;40775;51.448;4.742;2024-03-17T05:43:37;102004.16;;;8.25;100.00
54882;BME280;40775;51.448;4.742;2024-03-17T05:46:12;102010.28;;;8.25;100.00
54882;BME280;40775;51.448;4.742;2024-03-17T05:48:41;102010.22;;;8.24;100.00
54882;BME280;40775;51.448;4.742;2024-03-17T05:51:10;102020.75;;;8.25;100.00
54882;BME280;40775;51.448;4.742;2024-03-17T05:53:38;102012.84;;;8.24;100.00
54882;BME280;40775;51.448;4.742;2024-03-17T05:56:07;102013.88;;;8.27;100.00
54882;BME280;40775;51.448;4.742;2024-03-17T05:58:35;102015.81;;;8.31;100.00
54882;BME280;40775;51.448;4.742;2024-03-17T06:01:04;102015.88;;;8.33;100.00
54882;BME280;40775;51.448;4.742;2024-03-17T06:03:35;102025.63;;;8.35;100.00
54882;BME280;40775;51.448;4.742;2024-03-17T06:06:02;102021.38;;;8.38;100.00
54882;BME280;40775;51.448;4.742;2024-03-17T06:08:29;102022.19;;;8.36;100.00
54882;BME280;40775;51.448;4.742;2024-03-17T06:10:55;102022.41;;;8.41;100.00
54882;BME280;40775;51.448;4.742;2024-03-17T06:13:26;102021.66;;;8.44;100.00
54882;BME280;40775;51.448;4.742;2024-03-17T06:15:54;102038.31;;;8.46;100.00
54882;BME280;40775;51.448;4.742;2024-03-17T06:18:21;102028.19;;;8.52;100.00
54882;BME280;40775;51.448;4.742;2024-03-17T06:20:47;102043.19;;;8.56;100.00
54882;BME280;40775;51.448;4.742;2024-03-17T06:23:16;102037.34;;;8.61;100.00
54882;BME280;40775;51.448;4.742;2024-03-17T06:25:46;102037.41;;;8.63;100.00
54882;BME280;40775;51.448;4.742;2024-03-17T06:28:15;102026.88;;;8.61;100.00
54882;BME280;40775;51.448;4.742;2024-03-17T06:30:54;102024.41;;;8.64;100.00
54882;BME280;40775;51.448;4.742;2024-03-17T06:33:21;102020.06;;;8.65;100.00
54882;BME280;40775;51.448;4.742;2024-03-17T06:35:47;102014.28;;;8.72;100.00
54882;BME280;40775;51.448;4.742;2024-03-17T06:38:14;102009.88;;;8.71;100.00
54882;BME280;40775;51.448;4.742;2024-03-17T06:40:42;101999.09;;;8.83;100.00
54882;BME280;40775;51.448;4.742;2024-03-17T06:43:08;101996.59;;;8.86;100.00
54882;BME280;40775;51.448;4.742;2024-03-17T06:45:34;101987.16;;;8.89;100.00
54882;BME280;40775;51.448;4.742;2024-03-17T06:48:00;101986.94;;;8.85;100.00
54882;BME280;40775;51.448;4.742;2024-03-17T06:50:26;101983.84;;;8.93;100.00
54882;BME280;40775;51.448;4.742;2024-03-17T06:52:52;101980.41;;;8.94;100.00
54882;BME280;40775;51.448;4.742;2024-03-17T06:55:19;101983.22;;;8.99;100.00
54882;BME280;40775;51.448;4.742;2024-03-17T06:57:47;101982.47;;;9.02;100.00
54882;BME280;40775;51.448;4.742;2024-03-17T07:00:14;101988.66;;;9.04;100.00
54882;BME280;40775;51.448;4.742;2024-03-17T07:02:45;101987.88;;;9.05;100.00
54882;BME280;40775;51.448;4.742;2024-03-17T07:05:12;101985.44;;;9.09;100.00
54882;BME280;40775;51.448;4.742;2024-03-17T07:07:41;101989.22;;;9.16;100.00
54882;BME280;40775;51.448;4.742;2024-03-17T07:10:08;101990.13;;;9.16;100.00
54882;BME280;40775;51.448;4.742;2024-03-17T07:12:34;101993.91;;;9.23;100.00
54882;BME280;40775;51.448;4.742;2024-03-17T07:15:00;102007.13;;;9.26;100.00
54882;BME280;40775;51.448;4.742;2024-03-17T07:17:29;101998.66;;;9.32;100.00
54882;BME280;40775;51.448;4.742;2024-03-17T07:19:55;101998.72;;;9.33;100.00
54882;BME280;40775;51.448;4.742;2024-03-17T07:22:21;102001.34;;;9.33;100.00
54882;BME280;40775;51.448;4.742;2024-03-17T07:24:48;101998.03;;;9.37;100.00
54882;BME280;40775;51.448;4.742;2024-03-17T07:27:21;101997.41;;;9.43;100.00
54882;BME280;40775;51.448;4.742;2024-03-17T07:29:47;102001.88;;;9.45;100.00
54882;BME280;40775;51.448;4.742;2024-03-17T07:32:16;102002.06;;;9.50;100.00
54882;BME280;40775;51.448;4.742;2024-03-17T07:34:42;102012.63;;;9.51;100.00
54882;BME280;40775;51.448;4.742;2024-03-17T07:37:08;102007.50;;;9.54;100.00
54882;BME280;40775;51.448;4.742;2024-03-17T07:39:35;102020.06;;;9.62;100.00
54882;BME280;40775;51.448;4.742;2024-03-17T07:42:02;102013.16;;;9.64;100.00
54882;BME280;40775;51.448;4.742;2024-03-17T07:44:28;102012.47;;;9.68;100.00
54882;BME280;40775;51.448;4.742;2024-03-17T07:47:03;102008.94;;;9.67;100.00
54882;BME280;40775;51.448;4.742;2024-03-17T07:49:31;102012.47;;;9.68;100.00
54882;BME280;40775;51.448;4.742;2024-03-17T07:51:58;102011.09;;;9.77;100.00
54882;BME280;40775;51.448;4.742;2024-03-17T07:54:25;102004.84;;;9.74;100.00
54882;BME280;40775;51.448;4.742;2024-03-17T07:56:52;102006.06;;;9.82;100.00
54882;BME280;40775;51.448;4.742;2024-03-17T07:59:19;102006.28;;;9.86;100.00
54882;BME280;40775;51.448;4.742;2024-03-17T08:01:45;102008.25;;;9.92;100.00
54882;BME280;40775;51.448;4.742;2024-03-17T08:04:12;102005.75;;;9.95;100.00
54882;BME280;40775;51.448;4.742;2024-03-17T08:06:41;102013.88;;;10.01;100.00
54882;BME280;40775;51.448;4.742;2024-03-17T08:09:08;102012.19;;;10.03;100.00
54882;BME280;40775;51.448;4.742;2024-03-17T08:11:38;102010.84;;;10.13;100.00
54882;BME280;40775;51.448;4.742;2024-03-17T08:14:13;102015.03;;;10.29;100.00
54882;BME280;40775;51.448;4.742;2024-03-17T08:16:40;102011.00;;;10.16;100.00
54882;BME280;40775;51.448;4.742;2024-03-17T08:19:06;102004.97;;;10.18;100.00
54882;BME280;40775;51.448;4.742;2024-03-17T08:21:32;102009.66;;;10.26;100.00
54882;BME280;40775;51.448;4.742;2024-03-17T08:23:58;102008.88;;;10.28;100.00
54882;BME280;40775;51.448;4.742;2024-03-17T08:26:25;102002.06;;;10.33;100.00
54882;BME280;40775;51.448;4.742;2024-03-17T08:28:51;102013.78;;;10.41;100.00
54882;BME280;40775;51.448;4.742;2024-03-17T08:31:17;102012.13;;;10.43;100.00
54882;BME280;40775;51.448;4.742;2024-03-17T08:33:43;102006.81;;;10.42;100.00
54882;BME280;40775;51.448;4.742;2024-03-17T08:36:09;101998.44;;;10.52;100.00
54882;BME280;40775;51.448;4.742;2024-03-17T08:38:37;101997.78;;;10.58;100.00
54882;BME280;40775;51.448;4.742;2024-03-17T08:41:09;101993.44;;;10.58;100.00
54882;BME280;40775;51.448;4.742;2024-03-17T08:43:37;101986.63;;;10.63;100.00
54882;BME280;40775;51.448;4.742;2024-03-17T08:46:08;101984.41;;;10.74;100.00
54882;BME280;40775;51.448;4.742;2024-03-17T08:48:37;101976.81;;;10.81;100.00
54882;BME280;40775;51.448;4.742;2024-03-17T08:51:05;101974.53;;;10.91;100.00
54882;BME280;40775;51.448;4.742;2024-03-17T08:53:32;101980.88;;;10.96;100.00
54882;BME280;40775;51.448;4.742;2024-03-17T08:56:00;101975.84;;;11.02;100.00
54882;BME280;40775;51.448;4.742;2024-03-17T08:58:26;101983.88;;;11.06;100.00
54882;BME280;40775;51.448;4.742;2024-03-17T09:00:53;101970.91;;;11.11;100.00
54882;BME280;40775;51.448;4.742;2024-03-17T09:03:19;101970.50;;;11.24;100.00
54882;BME280;40775;51.448;4.742;2024-03-17T09:05:47;101975.94;;;11.29;100.00
54882;BME280;40775;51.448;4.742;2024-03-17T09:08:18;101967.47;;;11.37;100.00
54882;BME280;40775;51.448;4.742;2024-03-17T09:10:50;101964.72;;;11.34;100.00
54882;BME280;40775;51.448;4.742;2024-03-17T09:13:20;101974.81;;;11.48;100.00
54882;BME280;40775;51.448;4.742;2024-03-17T09:16:02;101966.63;;;11.64;100.00
54882;BME280;40775;51.448;4.742;2024-03-17T09:18:32;101966.09;;;11.74;100.00
54882;BME280;40775;51.448;4.742;2024-03-17T09:21:01;101967.47;;;11.88;100.00
54882;BME280;40775;51.448;4.742;2024-03-17T09:23:29;101962.38;;;11.93;100.00
54882;BME280;40775;51.448;4.742;2024-03-17T09:26:06;101962.50;;;11.97;100.00
54882;BME280;40775;51.448;4.742;2024-03-17T09:28:37;101957.38;;;12.02;100.00
54882;BME280;40775;51.448;4.742;2024-03-17T09:31:04;101966.41;;;12.09;100.00
54882;BME280;40775;51.448;4.742;2024-03-17T09:33:34;101956.91;;;12.14;100.00
54882;BME280;40775;51.448;4.742;2024-03-17T09:36:05;101960.16;;;12.33;100.00
54882;BME280;40775;51.448;4.742;2024-03-17T09:38:33;101963.63;;;12.32;100.00
54882;BME280;40775;51.448;4.742;2024-03-17T09:41:00;101962.13;;;12.41;100.00
54882;BME280;40775;51.448;4.742;2024-03-17T09:43:28;101957.75;;;12.41;100.00
54882;BME280;40775;51.448;4.742;2024-03-17T09:45:54;101954.69;;;12.56;100.00
54882;BME280;40775;51.448;4.742;2024-03-17T09:48:25;101955.66;;;12.59;100.00
54882;BME280;40775;51.448;4.742;2024-03-17T09:50:55;101954.31;;;12.72;100.00
54882;BME280;40775;51.448;4.742;2024-03-17T09:53:30;101944.06;;;12.83;100.00
54882;BME280;40775;51.448;4.742;2024-03-17T09:55:59;101947.84;;;12.91;100.00
54882;BME280;40775;51.448;4.742;2024-03-17T09:58:25;101940.66;;;12.87;100.00
54882;BME280;40775;51.448;4.742;2024-03-17T10:00:51;101946.13;;;12.93;100.00
54882;BME280;40775;51.448;4.742;2024-03-17T10:06:07;101940.34;;;13.06;100.00
54882;BME280;40775;51.448;4.742;2024-03-17T10:11:11;101934.25;;;13.09;100.00
54882;BME280;40775;51.448;4.742;2024-03-17T10:13:37;101933.72;;;13.19;100.00
54882;BME280;40775;51.448;4.742;2024-03-17T10:16:04;101927.84;;;13.30;100.00
54882;BME280;40775;51.448;4.742;2024-03-17T10:18:30;101934.84;;;13.28;100.00
54882;BME280;40775;51.448;4.742;2024-03-17T10:20:57;101940.16;;;13.30;100.00
54882;BME280;40775;51.448;4.742;2024-03-17T10:23:24;101935.97;;;13.38;100.00
54882;BME280;40775;51.448;4.742;2024-03-17T10:25:50;101930.84;;;13.43;100.00
54882;BME280;40775;51.448;4.742;2024-03-17T10:28:17;101939.78;;;13.49;100.00
54882;BME280;40775;51.448;4.742;2024-03-17T10:31:00;101936.19;;;13.46;100.00
54882;BME280;40775;51.448;4.742;2024-03-17T10:33:27;101930.13;;;13.50;100.00
54882;BME280;40775;51.448;4.742;2024-03-17T10:35:59;101926.59;;;13.49;100.00
54882;BME280;40775;51.448;4.742;2024-03-17T10:38:31;101928.38;;;13.50;100.00
54882;BME280;40775;51.448;4.742;2024-03-17T10:40:57;101936.25;;;13.49;100.00
54882;BME280;40775;51.448;4.742;2024-03-17T10:43:23;101925.81;;;13.53;100.00
54882;BME280;40775;51.448;4.742;2024-03-17T10:45:53;101930.31;;;13.57;100.00
54882;BME280;40775;51.448;4.742;2024-03-17T10:48:26;101938.22;;;13.57;100.00
54882;BME280;40775;51.448;4.742;2024-03-17T10:50:59;101931.28;;;13.61;100.00
54882;BME280;40775;51.448;4.742;2024-03-17T10:53:26;101931.22;;;13.58;100.00
54882;BME280;40775;51.448;4.742;2024-03-17T10:56:13;101923.28;;;13.58;100.00
54882;BME280;40775;51.448;4.742;2024-03-17T10:58:44;101922.44;;;13.59;100.00
54882;BME280;40775;51.448;4.742;2024-03-17T11:01:18;101919.06;;;13.65;100.00
54882;BME280;40775;51.448;4.742;2024-03-17T11:03:46;101918.09;;;13.61;100.00
54882;BME280;40775;51.448;4.742;2024-03-17T11:06:13;101922.44;;;13.59;100.00
54882;BME280;40775;51.448;4.742;2024-03-17T11:08:40;101920.69;;;13.59;100.00
54882;BME280;40775;51.448;4.742;2024-03-17T11:11:08;101921.72;;;13.66;100.00
54882;BME280;40775;51.448;4.742;2024-03-17T11:13:35;101922.03;;;13.78;100.00
54882;BME280;40775;51.448;4.742;2024-03-17T11:16:25;101914.91;;;13.74;100.00
54882;BME280;40775;51.448;4.742;2024-03-17T11:18:52;101899.16;;;13.77;100.00
54882;BME280;40775;51.448;4.742;2024-03-17T11:21:31;101907.31;;;13.88;100.00
54882;BME280;40775;51.448;4.742;2024-03-17T11:24:02;101902.94;;;13.88;100.00
54882;BME280;40775;51.448;4.742;2024-03-17T11:26:33;101905.88;;;14.01;100.00
54882;BME280;40775;51.448;4.742;2024-03-17T11:29:01;101912.75;;;13.96;100.00
54882;BME280;40775;51.448;4.742;2024-03-17T11:34:05;101898.84;;;14.01;100.00
54882;BME280;40775;51.448;4.742;2024-03-17T11:36:37;101901.72;;;14.12;100.00
54882;BME280;40775;51.448;4.742;2024-03-17T11:39:10;101899.19;;;14.16;100.00
54882;BME280;40775;51.448;4.742;2024-03-17T11:41:53;101880.69;;;14.16;100.00
54882;BME280;40775;51.448;4.742;2024-03-17T11:44:23;101875.38;;;14.15;100.00
54882;BME280;40775;51.448;4.742;2024-03-17T11:47:04;101872.75;;;14.16;100.00
54882;BME280;40775;51.448;4.742;2024-03-17T11:49:40;101873.69;;;14.18;100.00
54882;BME280;40775;51.448;4.742;2024-03-17T11:52:11;101867.56;;;14.21;100.00
54882;BME280;40775;51.448;4.742;2024-03-17T11:54:43;101858.16;;;14.32;100.00
54882;BME280;40775;51.448;4.742;2024-03-17T11:59:39;101859.16;;;14.39;100.00
54882;BME280;40775;51.448;4.742;2024-03-17T12:02:24;101860.13;;;14.42;100.00
54882;BME280;40775;51.448;4.742;2024-03-17T12:04:53;101853.16;;;14.44;100.00
54882;BME280;40775;51.448;4.742;2024-03-17T12:07:21;101849.69;;;14.48;100.00
54882;BME280;40775;51.448;4.742;2024-03-17T12:09:51;101844.69;;;14.61;100.00
54882;BME280;40775;51.448;4.742;2024-03-17T12:12:21;101846.53;;;14.66;100.00
54882;BME280;40775;51.448;4.742;2024-03-17T12:14:49;101842.16;;;14.67;100.00
54882;BME280;40775;51.448;4.742;2024-03-17T12:17:23;101841.41;;;14.74;100.00
54882;BME280;40775;51.448;4.742;2024-03-17T12:19:50;101842.44;;;14.80;100.00
54882;BME280;40775;51.448;4.742;2024-03-17T12:22:25;101840.88;;;14.93;100.00
54882;BME280;40775;51.448;4.742;2024-03-17T12:24:57;101834.78;;;14.96;100.00
54882;BME280;40775;51.448;4.742;2024-03-17T12:27:26;101831.31;;;15.00;100.00
54882;BME280;40775;51.448;4.742;2024-03-17T12:29:54;101839.28;;;15.03;100.00
54882;BME280;40775;51.448;4.742;2024-03-17T12:32:25;101828.63;;;14.97;100.00
54882;BME280;40775;51.448;4.742;2024-03-17T12:34:57;101825.31;;;15.08;100.00
54882;BME280;40775;51.448;4.742;2024-03-17T12:37:26;101820.81;;;15.04;100.00
54882;BME280;40775;51.448;4.742;2024-03-17T12:39:57;101817.47;;;15.14;100.00
54882;BME280;40775;51.448;4.742;2024-03-17T12:42:27;101814.06;;;15.22;100.00
54882;BME280;40775;51.448;4.742;2024-03-17T12:44:58;101803.59;;;15.29;100.00
54882;BME280;40775;51.448;4.742;2024-03-17T12:47:30;101810.63;;;15.27;100.00
54882;BME280;40775;51.448;4.742;2024-03-17T12:49:58;101796.66;;;15.34;100.00
54882;BME280;40775;51.448;4.742;2024-03-17T12:52:30;101800.22;;;15.36;100.00
54882;BME280;40775;51.448;4.742;2024-03-17T12:55:03;101796.78;;;15.43;100.00
54882;BME280;40775;51.448;4.742;2024-03-17T13:01:00;101782.69;;;15.44;100.00
54882;BME280;40775;51.448;4.742;2024-03-17T13:03:33;101775.97;;;15.63;100.00
54882;BME280;40775;51.448;4.742;2024-03-17T13:06:04;101766.28;;;15.65;100.00